Time;durP1;ratioP1;P1;durP2;ratioP2;P2;SDS_P1;SDS_P2;PMS_P1;PMS_P2;Temp;Humidity;BMP_temperature;BMP_pressure;BME280_temperature;BME280_humidity;BME280_pressure;Samples;Min_cycle;Max_cycle;Signal;HPM_P1;HPM_P2
2021/06/11 00:00:54;;;;;;;528.85;438.98;;;;;;;;;;4999367;28;20022;-76
2021/06/11 00:03:21;;;;;;;525.35;436.98;;;;;;;;;;5018380;28;20038;-77
2021/06/11 00:05:47;;;;;;;542.60;454.65;;;;;;;;;;5003281;28;20081;-77
2021/06/11 00:08:13;;;;;;;526.75;444.50;;;;;;;;;;4986158;28;20503;-76
2021/06/11 00:10:39;;;;;;;534.33;445.55;;;;;;;;;;4991040;28;20022;-77
2021/06/11 00:13:07;;;;;;;531.35;447.88;;;;;;;;;;4988416;28;20037;-77
2021/06/11 00:15:33;;;;;;;535.63;450.20;;;;;;;;;;4985154;28;20504;-76
2021/06/11 00:18:00;;;;;;;529.33;439.80;;;;;;;;;;4991539;28;20022;-76
2021/06/11 00:20:26;;;;;;;518.13;427.90;;;;;;;;;;4989756;28;20027;-76
2021/06/11 00:22:52;;;;;;;518.45;432.63;;;;;;;;;;5005485;28;20694;-77
2021/06/11 00:25:23;;;;;;;514.97;425.55;;;;;;;;;;5008427;28;20027;-76
2021/06/11 00:27:49;;;;;;;516.47;429.05;;;;;;;;;;4997749;28;20035;-76
2021/06/11 00:30:15;;;;;;;513.90;429.90;;;;;;;;;;4977101;28;20107;-76
2021/06/11 00:32:42;;;;;;;513.70;426.30;;;;;;;;;;4972076;28;20171;-77
2021/06/11 00:35:08;;;;;;;511.70;420.88;;;;;;;;;;4992089;28;20030;-77
2021/06/11 00:37:34;;;;;;;515.92;424.63;;;;;;;;;;4998825;28;20033;-76
2021/06/11 00:40:00;;;;;;;513.88;419.48;;;;;;;;;;4992936;28;20097;-77
2021/06/11 00:42:28;;;;;;;516.38;426.58;;;;;;;;;;5015559;28;20568;-76
2021/06/11 00:44:54;;;;;;;514.53;419.38;;;;;;;;;;4999412;28;20079;-77
2021/06/11 00:47:20;;;;;;;517.78;427.23;;;;;;;;;;4997643;28;20038;-77
2021/06/11 00:49:48;;;;;;;521.15;429.60;;;;;;;;;;5000421;28;20484;-77
2021/06/11 00:52:14;;;;;;;525.00;431.75;;;;;;;;;;4985048;28;20379;-76
2021/06/11 00:54:40;;;;;;;533.20;437.52;;;;;;;;;;5001503;28;20481;-77
2021/06/11 00:57:06;;;;;;;539.03;439.35;;;;;;;;;;4993869;28;20053;-77
2021/06/11 00:59:32;;;;;;;560.15;462.95;;;;;;;;;;4990563;28;20065;-77
2021/06/11 01:01:58;;;;;;;543.08;447.35;;;;;;;;;;4991594;28;20542;-77
2021/06/11 01:04:24;;;;;;;537.78;435.52;;;;;;;;;;4989641;28;20034;-77
2021/06/11 01:06:50;;;;;;;539.35;446.80;;;;;;;;;;4987952;28;20374;-76
2021/06/11 01:09:17;;;;;;;542.80;450.42;;;;;;;;;;4998341;28;20026;-77
2021/06/11 01:11:43;;;;;;;548.97;451.90;;;;;;;;;;5000465;28;20094;-77
2021/06/11 01:14:10;;;;;;;543.90;448.73;;;;;;;;;;4989967;28;20086;-77
2021/06/11 01:16:37;;;;;;;544.65;455.55;;;;;;;;;;4984207;28;20030;-77
2021/06/11 01:19:03;;;;;;;550.33;468.40;;;;;;;;;;5001378;28;20062;-76
2021/06/11 01:21:31;;;;;;;546.78;459.17;;;;;;;;;;4999270;28;20119;-77
2021/06/11 01:23:57;;;;;;;542.33;459.15;;;;;;;;;;5001133;28;20126;-77
2021/06/11 01:26:26;;;;;;;544.92;457.08;;;;;;;;;;5012246;28;20526;-77
2021/06/11 01:28:53;;;;;;;546.67;455.55;;;;;;;;;;4986307;28;20400;-77
2021/06/11 01:31:20;;;;;;;545.70;458.25;;;;;;;;;;4985695;28;20030;-77
2021/06/11 01:33:48;;;;;;;535.17;441.90;;;;;;;;;;4992590;28;20022;-77
2021/06/11 01:36:15;;;;;;;536.88;444.67;;;;;;;;;;4990513;28;20366;-76
2021/06/11 01:38:43;;;;;;;531.40;435.33;;;;;;;;;;4991629;28;20027;-77
2021/06/11 01:41:12;;;;;;;530.17;425.92;;;;;;;;;;4988887;28;20041;-77
2021/06/11 01:43:39;;;;;;;530.47;432.75;;;;;;;;;;5013246;28;20049;-77
2021/06/11 01:46:07;;;;;;;529.40;428.83;;;;;;;;;;4993911;28;20038;-77
2021/06/11 01:48:32;;;;;;;532.58;433.02;;;;;;;;;;4974464;28;20117;-77
2021/06/11 01:50:59;;;;;;;533.55;428.75;;;;;;;;;;4989713;28;20176;-77
2021/06/11 01:53:26;;;;;;;589.60;485.10;;;;;;;;;;5000908;28;20029;-77
2021/06/11 01:55:52;;;;;;;544.70;443.20;;;;;;;;;;4973337;28;20022;-77
2021/06/11 01:58:19;;;;;;;543.10;437.13;;;;;;;;;;5002187;28;20026;-77
2021/06/11 02:00:45;;;;;;;538.42;437.35;;;;;;;;;;5004466;28;20026;-77
2021/06/11 02:03:12;;;;;;;536.92;433.20;;;;;;;;;;5002452;28;20035;-77
2021/06/11 02:05:38;;;;;;;536.03;433.77;;;;;;;;;;5000683;28;20073;-77
2021/06/11 02:08:04;;;;;;;539.80;441.52;;;;;;;;;;5007495;28;20034;-77
2021/06/11 02:10:31;;;;;;;533.20;430.80;;;;;;;;;;4986042;28;20402;-77
2021/06/11 02:12:57;;;;;;;538.13;436.67;;;;;;;;;;4978420;28;20035;-77
2021/06/11 02:15:23;;;;;;;541.65;436.20;;;;;;;;;;5008014;28;20044;-77
2021/06/11 02:17:50;;;;;;;555.33;447.02;;;;;;;;;;5004880;28;20026;-77
2021/06/11 02:20:17;;;;;;;548.22;441.17;;;;;;;;;;4999280;28;20493;-77
2021/06/11 02:22:45;;;;;;;554.33;443.27;;;;;;;;;;5003701;28;20045;-76
2021/06/11 02:25:15;;;;;;;553.35;444.70;;;;;;;;;;5002946;28;20075;-77
2021/06/11 02:27:41;;;;;;;547.30;438.38;;;;;;;;;;5006859;28;20063;-77
2021/06/11 02:30:08;;;;;;;541.83;436.35;;;;;;;;;;5084816;28;20393;-77
2021/06/11 02:32:35;;;;;;;538.30;427.23;;;;;;;;;;5079730;28;20103;-76
2021/06/11 02:35:03;;;;;;;536.78;428.58;;;;;;;;;;5073510;28;20067;-77
2021/06/11 02:37:29;;;;;;;536.63;423.50;;;;;;;;;;5062717;28;20028;-77
2021/06/11 02:39:55;;;;;;;535.75;425.85;;;;;;;;;;5075826;28;20035;-76
2021/06/11 02:42:21;;;;;;;535.30;428.42;;;;;;;;;;5091210;28;20025;-77
2021/06/11 02:44:50;;;;;;;533.42;423.67;;;;;;;;;;5080113;28;20356;-77
2021/06/11 02:47:24;;;;;;;534.33;421.40;;;;;;;;;;5077519;28;20370;-77
2021/06/11 02:50:04;;;;;;;534.47;418.75;;;;;;;;;;5088875;28;20115;-77
2021/06/11 02:52:30;;;;;;;525.05;405.17;;;;;;;;;;5077170;28;20016;-77
2021/06/11 02:54:58;;;;;;;530.70;406.60;;;;;;;;;;5092994;28;20028;-77
2021/06/11 02:57:30;;;;;;;536.35;419.73;;;;;;;;;;5073210;28;20040;-77
2021/06/11 03:00:01;;;;;;;547.45;426.95;;;;;;;;;;5080858;28;20020;-76
2021/06/11 03:02:30;;;;;;;581.55;459.42;;;;;;;;;;5070157;28;20089;-76
2021/06/11 03:04:56;;;;;;;554.30;434.55;;;;;;;;;;5051633;28;20051;-76
2021/06/11 03:07:29;;;;;;;543.40;428.98;;;;;;;;;;5033821;28;20126;-76
2021/06/11 03:09:56;;;;;;;547.80;433.17;;;;;;;;;;5026207;28;20070;-76
2021/06/11 03:12:23;;;;;;;563.00;440.65;;;;;;;;;;5072320;28;20039;-76
2021/06/11 03:14:49;;;;;;;555.58;435.13;;;;;;;;;;5051341;28;20511;-76
2021/06/11 03:17:18;;;;;;;535.72;417.13;;;;;;;;;;5082793;28;20115;-76
2021/06/11 03:19:47;;;;;;;543.55;428.73;;;;;;;;;;5053960;28;20419;-77
2021/06/11 03:22:15;;;;;;;550.67;434.95;;;;;;;;;;5077804;28;20036;-76
2021/06/11 03:24:51;;;;;;;550.83;438.38;;;;;;;;;;5067312;28;20153;-76
2021/06/11 03:27:23;;;;;;;547.85;434.45;;;;;;;;;;5072494;28;20028;-76
2021/06/11 03:29:51;;;;;;;542.97;419.23;;;;;;;;;;4991211;28;20078;-76
2021/06/11 03:32:20;;;;;;;541.05;417.45;;;;;;;;;;5018128;28;20028;-77
2021/06/11 03:34:48;;;;;;;541.30;421.95;;;;;;;;;;4984381;28;20066;-76
2021/06/11 03:37:16;;;;;;;543.75;425.30;;;;;;;;;;4984047;28;20076;-76
2021/06/11 03:39:48;;;;;;;541.67;420.30;;;;;;;;;;4983908;28;20030;-76
2021/06/11 03:42:14;;;;;;;541.50;419.58;;;;;;;;;;4986057;28;20034;-76
2021/06/11 03:44:46;;;;;;;544.10;425.25;;;;;;;;;;4962733;28;20030;-76
2021/06/11 03:47:13;;;;;;;541.15;418.35;;;;;;;;;;4967570;28;20034;-76
2021/06/11 03:49:44;;;;;;;540.50;415.95;;;;;;;;;;4967203;28;20023;-76
2021/06/11 03:52:12;;;;;;;542.58;421.23;;;;;;;;;;4978303;28;20331;-76
2021/06/11 03:54:39;;;;;;;546.55;429.80;;;;;;;;;;4982647;28;20101;-76
2021/06/11 03:57:12;;;;;;;539.53;419.45;;;;;;;;;;4979710;28;20044;-76
2021/06/11 03:59:40;;;;;;;541.03;422.02;;;;;;;;;;4960884;28;20035;-77
2021/06/11 04:02:06;;;;;;;536.28;407.48;;;;;;;;;;4980536;28;20026;-76
2021/06/11 04:04:33;;;;;;;539.42;416.05;;;;;;;;;;4962345;28;20023;-76
2021/06/11 04:07:11;;;;;;;542.17;423.67;;;;;;;;;;4967764;28;20034;-76
2021/06/11 04:09:43;;;;;;;543.88;432.48;;;;;;;;;;4964593;28;20027;-76
2021/06/11 04:12:11;;;;;;;542.20;430.30;;;;;;;;;;4982305;28;20037;-76
2021/06/11 04:14:39;;;;;;;546.08;434.05;;;;;;;;;;4982397;28;20047;-76
2021/06/11 04:17:08;;;;;;;541.20;430.73;;;;;;;;;;4979905;28;20482;-77
2021/06/11 04:19:39;;;;;;;539.10;431.10;;;;;;;;;;4977429;28;20117;-76
2021/06/11 04:22:05;;;;;;;541.63;434.42;;;;;;;;;;4979324;28;20022;-76
2021/06/11 04:24:33;;;;;;;543.67;439.88;;;;;;;;;;4979866;28;20087;-76
2021/06/11 04:26:59;;;;;;;541.97;435.40;;;;;;;;;;4980423;28;20038;-76
2021/06/11 04:29:27;;;;;;;542.17;433.67;;;;;;;;;;4967860;28;20096;-76
2021/06/11 04:31:53;;;;;;;544.63;440.90;;;;;;;;;;4966310;28;20049;-76
2021/06/11 04:34:20;;;;;;;544.70;443.58;;;;;;;;;;4979194;28;20099;-76
2021/06/11 04:36:46;;;;;;;544.35;444.75;;;;;;;;;;4965035;28;20062;-76
2021/06/11 04:39:13;;;;;;;542.97;437.02;;;;;;;;;;4987780;28;20023;-76
2021/06/11 04:41:39;;;;;;;543.17;438.73;;;;;;;;;;4966016;28;20029;-76
2021/06/11 04:44:06;;;;;;;549.80;446.90;;;;;;;;;;4966216;28;20046;-76
2021/06/11 04:46:33;;;;;;;548.13;449.58;;;;;;;;;;4978423;28;20501;-77
2021/06/11 04:49:00;;;;;;;548.30;447.80;;;;;;;;;;4961248;28;20385;-76
2021/06/11 04:51:26;;;;;;;550.88;450.35;;;;;;;;;;4976778;28;20035;-76
2021/06/11 04:53:52;;;;;;;551.00;450.40;;;;;;;;;;4983836;28;20027;-76
2021/06/11 04:56:18;;;;;;;555.38;455.80;;;;;;;;;;4980996;28;20036;-76
2021/06/11 04:58:48;;;;;;;639.92;535.25;;;;;;;;;;4986373;28;20056;-76
2021/06/11 05:01:14;;;;;;;562.53;465.85;;;;;;;;;;4967584;28;20129;-76
2021/06/11 05:03:40;;;;;;;569.13;469.92;;;;;;;;;;4989338;28;20027;-76
2021/06/11 05:06:06;;;;;;;574.75;478.05;;;;;;;;;;4965156;28;20071;-76
2021/06/11 05:08:32;;;;;;;576.40;477.50;;;;;;;;;;4994524;28;20028;-76
2021/06/11 05:11:01;;;;;;;571.60;474.10;;;;;;;;;;4982669;28;20548;-75
2021/06/11 05:13:27;;;;;;;570.60;473.20;;;;;;;;;;4981650;28;20027;-76
2021/06/11 05:15:53;;;;;;;563.95;472.88;;;;;;;;;;4967002;28;20030;-76
2021/06/11 05:18:19;;;;;;;558.28;470.67;;;;;;;;;;4984771;28;20035;-76
2021/06/11 05:20:46;;;;;;;552.30;467.92;;;;;;;;;;4980385;28;20073;-76
2021/06/11 05:23:13;;;;;;;554.92;475.30;;;;;;;;;;4981530;28;20406;-76
2021/06/11 05:25:39;;;;;;;553.58;465.35;;;;;;;;;;4980564;28;20018;-76
2021/06/11 05:28:05;;;;;;;554.40;468.63;;;;;;;;;;4973229;28;20088;-76
2021/06/11 05:30:31;;;;;;;548.92;462.70;;;;;;;;;;4983865;28;20022;-76
2021/06/11 05:32:58;;;;;;;555.17;468.55;;;;;;;;;;4991333;28;20035;-76
2021/06/11 05:35:24;;;;;;;558.05;470.50;;;;;;;;;;4968019;28;20094;-76
2021/06/11 05:37:50;;;;;;;578.78;494.52;;;;;;;;;;4963917;28;20022;-77
2021/06/11 05:40:17;;;;;;;575.15;493.45;;;;;;;;;;5001580;28;20034;-76
2021/06/11 05:42:43;;;;;;;625.75;549.03;;;;;;;;;;4964211;28;20149;-76
2021/06/11 05:45:09;;;;;;;553.90;464.35;;;;;;;;;;4962613;28;20026;-76
2021/06/11 05:47:39;;;;;;;547.45;462.70;;;;;;;;;;4980554;28;20043;-76
2021/06/11 05:50:06;;;;;;;547.78;465.42;;;;;;;;;;4966429;28;20394;-76
2021/06/11 05:52:32;;;;;;;542.35;466.77;;;;;;;;;;4966646;28;20034;-76
2021/06/11 05:54:58;;;;;;;546.97;470.83;;;;;;;;;;4968602;28;20037;-75
2021/06/11 05:57:25;;;;;;;545.00;466.88;;;;;;;;;;4963884;28;20026;-76
2021/06/11 05:59:53;;;;;;;549.65;475.65;;;;;;;;;;4982293;28;20389;-75
2021/06/11 06:02:19;;;;;;;562.97;487.35;;;;;;;;;;4979290;28;20116;-76
2021/06/11 06:04:45;;;;;;;575.42;500.90;;;;;;;;;;4978867;28;20496;-76
2021/06/11 06:07:11;;;;;;;572.38;499.40;;;;;;;;;;4976304;28;20030;-76
2021/06/11 06:09:37;;;;;;;605.50;532.67;;;;;;;;;;4978894;28;20037;-76
2021/06/11 06:12:03;;;;;;;701.88;626.00;;;;;;;;;;4968195;28;20022;-76
2021/06/11 06:14:29;;;;;;;853.17;766.45;;;;;;;;;;4960142;28;20382;-75
2021/06/11 06:16:55;;;;;;;726.30;648.17;;;;;;;;;;4979237;28;20041;-75
2021/06/11 06:19:21;;;;;;;678.75;604.85;;;;;;;;;;4965768;28;20031;-75
2021/06/11 06:21:47;;;;;;;635.78;565.85;;;;;;;;;;4981869;28;20493;-75
2021/06/11 06:24:13;;;;;;;617.45;550.33;;;;;;;;;;5017030;28;20099;-75
2021/06/11 06:26:40;;;;;;;621.63;553.17;;;;;;;;;;4995250;28;20022;-75
2021/06/11 06:29:06;;;;;;;625.70;557.17;;;;;;;;;;4972477;28;20047;-75
2021/06/11 06:31:33;;;;;;;659.05;588.75;;;;;;;;;;4993084;28;20039;-75
2021/06/11 06:34:00;;;;;;;643.08;573.05;;;;;;;;;;5007309;28;20020;-75
2021/06/11 06:36:26;;;;;;;722.60;646.17;;;;;;;;;;4992138;28;20031;-75
2021/06/11 06:38:54;;;;;;;656.33;586.08;;;;;;;;;;4977490;28;20023;-76
2021/06/11 06:44:24;;;;;;;710.42;635.47;;;;;;;;;;4981205;28;20073;-74
2021/06/11 06:46:50;;;;;;;691.17;617.92;;;;;;;;;;4976403;28;20023;-74
2021/06/11 06:49:16;;;;;;;690.17;616.78;;;;;;;;;;4983564;28;20072;-75
2021/06/11 06:51:43;;;;;;;721.92;646.42;;;;;;;;;;4979969;28;20023;-73
2021/06/11 06:57:13;;;;;;;802.60;720.33;;;;;;;;;;4990748;28;20088;-74
2021/06/11 06:59:39;;;;;;;797.47;716.30;;;;;;;;;;4978281;28;20031;-73
2021/06/11 07:02:07;;;;;;;660.35;589.13;;;;;;;;;;4988081;28;20331;-74
2021/06/11 07:04:33;;;;;;;729.38;653.38;;;;;;;;;;4984606;28;20049;-74
2021/06/11 07:06:59;;;;;;;665.00;594.53;;;;;;;;;;4984793;28;20479;-75
2021/06/11 07:09:25;;;;;;;640.95;572.13;;;;;;;;;;4984415;28;20105;-74
2021/06/11 07:11:52;;;;;;;652.15;582.65;;;;;;;;;;4964323;28;20490;-75
2021/06/11 07:14:20;;;;;;;638.00;570.17;;;;;;;;;;4972296;28;20065;-75
2021/06/11 07:16:48;;;;;;;638.78;571.10;;;;;;;;;;4968932;28;20022;-74
2021/06/11 07:19:14;;;;;;;643.08;574.83;;;;;;;;;;4990843;28;20071;-74
2021/06/11 07:21:40;;;;;;;615.45;550.22;;;;;;;;;;4982731;28;20071;-74
2021/06/11 07:24:07;;;;;;;608.17;543.42;;;;;;;;;;4980752;28;20542;-75
2021/06/11 07:26:33;;;;;;;595.38;531.47;;;;;;;;;;4983591;28;20030;-75
2021/06/11 07:28:59;;;;;;;621.42;556.20;;;;;;;;;;4980724;28;20381;-74
2021/06/11 07:31:25;;;;;;;619.63;555.20;;;;;;;;;;4966866;28;20075;-74
2021/06/11 07:33:51;;;;;;;613.65;549.20;;;;;;;;;;4972810;28;20424;-74
2021/06/11 07:36:17;;;;;;;616.53;551.78;;;;;;;;;;4970329;28;20022;-74
2021/06/11 07:38:43;;;;;;;608.33;544.15;;;;;;;;;;4987614;28;20044;-80
2021/06/11 07:41:09;;;;;;;613.05;549.17;;;;;;;;;;4966647;28;20505;-74
2021/06/11 07:43:35;;;;;;;624.58;559.90;;;;;;;;;;4984341;28;20015;-74
2021/06/11 07:46:02;;;;;;;637.08;572.50;;;;;;;;;;4975721;28;20035;-74
2021/06/11 07:48:28;;;;;;;633.25;568.63;;;;;;;;;;4972115;28;20022;-74
2021/06/11 07:50:54;;;;;;;644.83;580.20;;;;;;;;;;4959235;28;20348;-75
2021/06/11 07:53:23;;;;;;;639.75;575.88;;;;;;;;;;4970550;28;20035;-75
2021/06/11 07:55:50;;;;;;;645.08;580.28;;;;;;;;;;4962557;28;20027;-74
2021/06/11 07:58:16;;;;;;;653.17;588.92;;;;;;;;;;4982152;28;20397;-73
2021/06/11 08:00:42;;;;;;;661.45;596.65;;;;;;;;;;4964153;28;20080;-75
2021/06/11 08:03:08;;;;;;;673.90;609.15;;;;;;;;;;4982957;28;20030;-74
2021/06/11 08:05:35;;;;;;;689.45;623.30;;;;;;;;;;4980616;28;20107;-75
2021/06/11 08:08:01;;;;;;;729.20;660.50;;;;;;;;;;4982569;28;20027;-74
2021/06/11 08:10:27;;;;;;;708.63;641.38;;;;;;;;;;4972289;28;20038;-75
2021/06/11 08:12:53;;;;;;;717.75;650.10;;;;;;;;;;4984222;28;20042;-75
2021/06/11 08:15:19;;;;;;;674.28;610.25;;;;;;;;;;4980792;28;20038;-74
2021/06/11 08:17:45;;;;;;;697.75;632.58;;;;;;;;;;4984918;28;20026;-75
2021/06/11 08:20:11;;;;;;;690.35;625.67;;;;;;;;;;4984617;28;20166;-74
2021/06/11 08:22:38;;;;;;;693.28;629.05;;;;;;;;;;4965594;28;20031;-74
2021/06/11 08:25:05;;;;;;;691.65;628.03;;;;;;;;;;4974900;28;20141;-74
2021/06/11 08:27:31;;;;;;;688.67;625.30;;;;;;;;;;4961370;28;20069;-74
2021/06/11 08:29:57;;;;;;;702.92;638.80;;;;;;;;;;4980364;28;20085;-74
2021/06/11 08:32:23;;;;;;;692.47;629.00;;;;;;;;;;4959853;28;20146;-74
2021/06/11 08:34:49;;;;;;;711.78;647.42;;;;;;;;;;4981325;28;20053;-74
2021/06/11 08:37:20;;;;;;;723.45;657.88;;;;;;;;;;4964724;28;20066;-74
2021/06/11 08:39:52;;;;;;;697.03;633.40;;;;;;;;;;4966668;28;20018;-74
2021/06/11 08:42:20;;;;;;;706.00;641.28;;;;;;;;;;4966673;28;20117;-74
2021/06/11 08:44:46;;;;;;;710.78;645.50;;;;;;;;;;4971339;28;20163;-74
2021/06/11 08:47:12;;;;;;;692.33;628.33;;;;;;;;;;4980169;28;20484;-75
2021/06/11 08:49:38;;;;;;;674.58;611.72;;;;;;;;;;4988784;28;20030;-74
2021/06/11 08:52:04;;;;;;;659.28;597.38;;;;;;;;;;4955874;28;20023;-74
2021/06/11 08:54:30;;;;;;;660.65;598.78;;;;;;;;;;4961516;28;20052;-74
2021/06/11 08:56:56;;;;;;;660.10;598.15;;;;;;;;;;4959894;28;20474;-74
2021/06/11 08:59:24;;;;;;;669.50;607.13;;;;;;;;;;4980708;28;20023;-73
2021/06/11 09:01:50;;;;;;;673.58;610.92;;;;;;;;;;4961470;28;20031;-74
2021/06/11 09:04:36;;;;;;;671.95;609.30;;;;;;;;;;4976049;28;20046;-74
2021/06/11 09:07:23;;;;;;;655.67;594.03;;;;;;;;;;4956497;28;20036;-75
2021/06/11 09:09:56;;;;;;;667.08;605.20;;;;;;;;;;4959093;28;20025;-74
2021/06/11 09:12:28;;;;;;;670.63;608.45;;;;;;;;;;4977975;28;20037;-76
2021/06/11 09:14:55;;;;;;;654.20;592.83;;;;;;;;;;4985640;28;20037;-74
2021/06/11 09:17:41;;;;;;;657.67;596.30;;;;;;;;;;4968354;28;20521;-74
2021/06/11 09:20:17;;;;;;;654.78;593.20;;;;;;;;;;4963445;28;20034;-74
2021/06/11 09:22:57;;;;;;;668.08;605.78;;;;;;;;;;4958697;28;21164;-74
2021/06/11 09:25:23;;;;;;;689.25;625.55;;;;;;;;;;4987973;28;20038;-74
2021/06/11 09:27:50;;;;;;;667.80;606.22;;;;;;;;;;4976436;28;20585;-74
2021/06/11 09:30:18;;;;;;;681.80;619.90;;;;;;;;;;4977393;28;20108;-73
2021/06/11 09:32:54;;;;;;;692.17;630.35;;;;;;;;;;4968030;28;20058;-74
2021/06/11 09:35:27;;;;;;;693.47;631.67;;;;;;;;;;4984618;28;20035;-74
2021/06/11 09:38:06;;;;;;;688.42;627.33;;;;;;;;;;4978921;28;20023;-74
2021/06/11 09:40:33;;;;;;;693.35;631.92;;;;;;;;;;4976553;28;20105;-74
2021/06/11 09:43:03;;;;;;;697.47;636.03;;;;;;;;;;4959124;28;20072;-73
2021/06/11 09:45:29;;;;;;;688.25;626.70;;;;;;;;;;4979931;28;20041;-73
2021/06/11 09:47:55;;;;;;;707.78;645.78;;;;;;;;;;4979115;28;20038;-74
2021/06/11 09:50:31;;;;;;;713.17;651.13;;;;;;;;;;4983067;28;20389;-74
2021/06/11 09:53:07;;;;;;;724.60;662.03;;;;;;;;;;4966796;28;20370;-73
2021/06/11 09:55:35;;;;;;;745.78;682.75;;;;;;;;;;4979705;28;20055;-73
2021/06/11 09:58:06;;;;;;;769.38;705.67;;;;;;;;;;4980436;28;20627;-74
2021/06/11 10:00:33;;;;;;;763.20;700.47;;;;;;;;;;4983115;28;20034;-73
2021/06/11 10:03:00;;;;;;;769.28;706.58;;;;;;;;;;4962758;28;20117;-74
2021/06/11 10:05:29;;;;;;;759.63;697.50;;;;;;;;;;4977576;28;20084;-74
2021/06/11 10:07:55;;;;;;;759.15;697.22;;;;;;;;;;4981427;28;20061;-74
2021/06/11 10:10:22;;;;;;;763.35;699.65;;;;;;;;;;4976540;28;20355;-73
2021/06/11 10:12:48;;;;;;;769.38;707.17;;;;;;;;;;4983789;28;20083;-74
2021/06/11 10:15:15;;;;;;;757.92;696.03;;;;;;;;;;4958218;28;20026;-74
2021/06/11 10:17:42;;;;;;;763.60;700.83;;;;;;;;;;4952444;28;20027;-74
2021/06/11 10:20:10;;;;;;;755.05;693.17;;;;;;;;;;4961661;28;20042;-74
2021/06/11 10:22:37;;;;;;;764.60;701.90;;;;;;;;;;4976932;28;20490;-73
2021/06/11 10:25:03;;;;;;;762.58;700.40;;;;;;;;;;4973968;28;20092;-74
2021/06/11 10:27:29;;;;;;;758.78;697.20;;;;;;;;;;4960843;28;20038;-74
2021/06/11 10:29:56;;;;;;;738.35;677.58;;;;;;;;;;4977715;28;20077;-75
2021/06/11 10:32:22;;;;;;;731.55;670.55;;;;;;;;;;4967018;28;20061;-73
2021/06/11 10:34:51;;;;;;;743.70;682.13;;;;;;;;;;4983258;28;20031;-72
2021/06/11 10:37:47;;;;;;;732.90;671.58;;;;;;;;;;4991394;28;20050;-73
2021/06/11 10:40:15;;;;;;;720.72;659.92;;;;;;;;;;4998816;28;20050;-74
2021/06/11 10:42:43;;;;;;;731.78;669.45;;;;;;;;;;4988105;28;20025;-73
2021/06/11 10:45:12;;;;;;;708.22;647.05;;;;;;;;;;4985613;28;20069;-74
2021/06/11 10:47:39;;;;;;;704.67;643.28;;;;;;;;;;4969417;28;20121;-74
2021/06/11 10:50:07;;;;;;;693.63;632.70;;;;;;;;;;4985169;28;20087;-74
2021/06/11 10:52:34;;;;;;;691.25;630.28;;;;;;;;;;4985325;28;20026;-73
2021/06/11 10:55:16;;;;;;;685.45;624.92;;;;;;;;;;4985745;28;20031;-73
2021/06/11 10:57:51;;;;;;;693.28;632.22;;;;;;;;;;4987674;28;22218;-74
2021/06/11 11:00:22;;;;;;;708.55;647.13;;;;;;;;;;4986958;28;20026;-74
2021/06/11 11:02:50;;;;;;;709.10;647.70;;;;;;;;;;4970593;28;20023;-73
2021/06/11 11:05:25;;;;;;;705.10;643.80;;;;;;;;;;4966491;28;20039;-73
2021/06/11 11:07:53;;;;;;;689.85;628.85;;;;;;;;;;4980393;28;20026;-75
2021/06/11 11:10:45;;;;;;;698.65;637.67;;;;;;;;;;4960050;28;20191;-74
2021/06/11 11:13:30;;;;;;;691.92;631.40;;;;;;;;;;4970827;28;20039;-76
2021/06/11 11:15:57;;;;;;;705.42;644.63;;;;;;;;;;4975784;28;20087;-74
2021/06/11 11:18:32;;;;;;;708.00;647.00;;;;;;;;;;4966084;28;20057;-76
2021/06/11 11:20:58;;;;;;;709.63;648.60;;;;;;;;;;4981303;28;20401;-75
2021/06/11 11:23:28;;;;;;;709.03;648.22;;;;;;;;;;4984198;28;20038;-76
2021/06/11 11:25:55;;;;;;;716.10;655.05;;;;;;;;;;4985226;28;20076;-73
2021/06/11 11:28:21;;;;;;;712.22;651.22;;;;;;;;;;5010409;28;20041;-74
2021/06/11 11:30:48;;;;;;;718.42;657.40;;;;;;;;;;4996152;28;20129;-73
2021/06/11 11:33:15;;;;;;;725.15;663.97;;;;;;;;;;4980430;28;20052;-73
2021/06/11 11:35:43;;;;;;;729.10;667.72;;;;;;;;;;4964595;28;20039;-73
2021/06/11 11:38:10;;;;;;;717.90;656.80;;;;;;;;;;4981060;28;20011;-74
2021/06/11 11:40:37;;;;;;;716.53;655.30;;;;;;;;;;4987887;28;20034;-73
2021/06/11 11:43:03;;;;;;;724.13;662.90;;;;;;;;;;4973896;28;20026;-73
2021/06/11 11:45:30;;;;;;;742.03;679.38;;;;;;;;;;4961727;28;20031;-72
2021/06/11 11:48:08;;;;;;;736.25;674.38;;;;;;;;;;4970324;28;20041;-73
2021/06/11 11:50:36;;;;;;;742.25;680.47;;;;;;;;;;4983350;28;20031;-74
2021/06/11 11:53:02;;;;;;;736.53;675.15;;;;;;;;;;4971573;28;20034;-73
2021/06/11 11:55:29;;;;;;;735.53;674.25;;;;;;;;;;4993270;28;20034;-74
2021/06/11 11:57:55;;;;;;;732.20;670.83;;;;;;;;;;5002832;28;20503;-73
2021/06/11 12:00:21;;;;;;;729.70;668.25;;;;;;;;;;4966826;28;20038;-73
2021/06/11 12:02:48;;;;;;;731.03;669.38;;;;;;;;;;4986637;28;20458;-73
2021/06/11 12:05:14;;;;;;;724.65;663.47;;;;;;;;;;4982024;28;20042;-73
2021/06/11 12:07:41;;;;;;;732.90;671.15;;;;;;;;;;4992894;28;20026;-74
2021/06/11 12:10:07;;;;;;;722.13;660.55;;;;;;;;;;4994912;28;20080;-74
2021/06/11 12:12:34;;;;;;;733.10;671.22;;;;;;;;;;4968546;28;20027;-72
2021/06/11 12:15:00;;;;;;;745.67;683.38;;;;;;;;;;4968952;28;20117;-73
2021/06/11 12:17:26;;;;;;;769.72;706.75;;;;;;;;;;4997774;28;20031;-73
2021/06/11 12:19:52;;;;;;;780.38;717.58;;;;;;;;;;4981956;28;20558;-73
2021/06/11 12:22:18;;;;;;;800.08;736.78;;;;;;;;;;4975534;28;20034;-74
2021/06/11 12:24:44;;;;;;;802.10;738.88;;;;;;;;;;4983597;28;20362;-73
2021/06/11 12:27:10;;;;;;;814.17;750.60;;;;;;;;;;4987080;28;20043;-73
2021/06/11 12:29:36;;;;;;;789.60;727.08;;;;;;;;;;4985172;28;20057;-73
2021/06/11 12:32:03;;;;;;;776.53;714.35;;;;;;;;;;4975101;28;20385;-73
2021/06/11 12:34:29;;;;;;;753.63;692.42;;;;;;;;;;4979901;28;20034;-73
2021/06/11 12:36:55;;;;;;;770.08;707.97;;;;;;;;;;4987228;28;20065;-73
2021/06/11 12:39:21;;;;;;;768.80;707.10;;;;;;;;;;4979243;28;20056;-73
2021/06/11 12:41:53;;;;;;;771.13;709.17;;;;;;;;;;4972867;28;20040;-73
2021/06/11 12:44:20;;;;;;;771.10;709.13;;;;;;;;;;4964772;28;20180;-73
2021/06/11 12:46:50;;;;;;;760.33;698.08;;;;;;;;;;4983475;28;20034;-71
2021/06/11 12:49:17;;;;;;;753.30;691.80;;;;;;;;;;4986154;28;20540;-72
2021/06/11 12:51:43;;;;;;;753.42;691.95;;;;;;;;;;4968856;28;20037;-72
2021/06/11 12:54:09;;;;;;;773.42;710.85;;;;;;;;;;5035305;28;20033;-73
2021/06/11 12:56:36;;;;;;;770.15;707.88;;;;;;;;;;4985035;28;20049;-73
2021/06/11 12:59:02;;;;;;;797.83;734.85;;;;;;;;;;4983359;28;20027;-72
2021/06/11 13:01:29;;;;;;;805.88;742.70;;;;;;;;;;4980283;28;20030;-73
2021/06/11 13:03:55;;;;;;;797.65;735.10;;;;;;;;;;4964750;28;20037;-73
2021/06/11 13:06:21;;;;;;;797.13;734.53;;;;;;;;;;4980034;28;20058;-73
2021/06/11 13:08:49;;;;;;;800.85;738.33;;;;;;;;;;4975740;28;20046;-73
2021/06/11 13:11:15;;;;;;;790.10;727.95;;;;;;;;;;4981675;28;20027;-73
2021/06/11 13:13:41;;;;;;;796.30;734.15;;;;;;;;;;4980446;28;20113;-73
2021/06/11 13:16:07;;;;;;;798.78;736.83;;;;;;;;;;4990543;28;20030;-73
2021/06/11 13:18:32;;;;;;;798.05;736.33;;;;;;;;;;4973732;28;20135;-73
2021/06/11 13:20:59;;;;;;;818.13;755.05;;;;;;;;;;4978702;28;20026;-73
2021/06/11 13:23:25;;;;;;;806.63;744.15;;;;;;;;;;4965575;28;20095;-73
2021/06/11 13:25:51;;;;;;;781.97;720.80;;;;;;;;;;4981574;28;20454;-74
2021/06/11 13:28:17;;;;;;;794.88;732.75;;;;;;;;;;4960869;28;20031;-73
2021/06/11 13:30:44;;;;;;;795.65;733.05;;;;;;;;;;4977327;28;20035;-73
2021/06/11 13:33:10;;;;;;;786.67;724.22;;;;;;;;;;4959282;28;20056;-73
2021/06/11 13:35:37;;;;;;;780.60;718.13;;;;;;;;;;4979717;28;20398;-73
2021/06/11 13:38:03;;;;;;;789.55;726.55;;;;;;;;;;4965987;28;20048;-74
2021/06/11 13:40:30;;;;;;;761.55;699.95;;;;;;;;;;4970058;28;20040;-74
2021/06/11 13:42:57;;;;;;;762.92;701.28;;;;;;;;;;5019512;28;20091;-73
2021/06/11 13:45:23;;;;;;;766.70;705.08;;;;;;;;;;4983351;28;20034;-73
2021/06/11 13:47:49;;;;;;;766.20;704.58;;;;;;;;;;4982099;28;20035;-73
2021/06/11 13:50:16;;;;;;;771.28;709.42;;;;;;;;;;4970203;28;20034;-74
2021/06/11 13:52:42;;;;;;;772.05;710.55;;;;;;;;;;4983249;28;20489;-72
2021/06/11 13:55:09;;;;;;;768.33;706.88;;;;;;;;;;4957167;28;20023;-73
2021/06/11 13:57:36;;;;;;;769.75;708.28;;;;;;;;;;4964274;28;20023;-73
2021/06/11 14:00:04;;;;;;;755.97;695.03;;;;;;;;;;4961484;28;20030;-73